Highest pressure

Not for real navigation. The accuracy of this data is not assured See disclaimer for more information



ICAO NAME COUNTRY WIND Kt GUST Kt VIS m TEMP/DEW C BARO METAR
UATG 3 0 5000 -7/-9 30.56 UATG 172200Z 03003KT 5000 BR NSC M07/M09 Q1035 R32/CLRD70 NOSIG RMK QFE778/1038
UARR Uralsk Kazakhstan 3 0 8000 -1/-2 30.53 UARR 172200Z 26003KT 8000 BKN008 OVC016 M01/M02 Q1034 R22/CLRD70 TEMPO 0500 FZFG VV003 RMK QFE772/10
UWSG 4 0 9999 0/-2 30.53 UWSG 172200Z 25004KT 9999 OVC011 M00/M02 Q1034 R26/290060 NOSIG RMK QFE773/1030
UATE Aktau Kazakhstan 4 0 9999 -5/-8 30.53 UATE 172200Z 08004KT CAVOK M05/M08 Q1034 R12/0///70 NOSIG RMK QFE773/1031
URWA Astrakhan Russia 2 0 300 -3/-3 30.53 URWA 172200Z 10002KT 0300 0200NE R09/0650D FZFG VV002 M03/M03 Q1034 R09/010070 NOSIG RMK OBST OBSC Q

Show more